sensor_id;sensor_type;location;lat;lon;timestamp;pressure;altitude;pressure_sealevel;temperature;humidity
10832;BME280;5469;48.574;8.768;2022-10-01T00:00:47;94602.31;;;9.69;nan
10832;BME280;5469;48.574;8.768;2022-10-01T00:03:25;94601.84;;;9.56;nan
10832;BME280;5469;48.574;8.768;2022-10-01T00:06:00;94602.38;;;9.58;nan
10832;BME280;5469;48.574;8.768;2022-10-01T00:08:33;94597.63;;;9.50;nan
10832;BME280;5469;48.574;8.768;2022-10-01T00:11:09;94597.38;;;9.47;nan
10832;BME280;5469;48.574;8.768;2022-10-01T00:13:43;94594.72;;;9.47;nan
10832;BME280;5469;48.574;8.768;2022-10-01T00:16:19;94600.19;;;9.71;nan
10832;BME280;5469;48.574;8.768;2022-10-01T00:18:54;94601.00;;;9.71;nan
10832;BME280;5469;48.574;8.768;2022-10-01T00:21:30;94593.28;;;9.75;nan
10832;BME280;5469;48.574;8.768;2022-10-01T00:24:04;94597.16;;;9.38;nan
10832;BME280;5469;48.574;8.768;2022-10-01T00:26:38;94588.59;;;9.61;nan
10832;BME280;5469;48.574;8.768;2022-10-01T00:29:13;94580.81;;;9.15;nan
10832;BME280;5469;48.574;8.768;2022-10-01T00:31:46;94585.09;;;9.06;nan
10832;BME280;5469;48.574;8.768;2022-10-01T00:34:21;94582.13;;;9.18;nan
10832;BME280;5469;48.574;8.768;2022-10-01T00:36:54;94583.47;;;9.05;nan
10832;BME280;5469;48.574;8.768;2022-10-01T00:39:27;94593.28;;;8.94;nan
10832;BME280;5469;48.574;8.768;2022-10-01T00:42:01;94598.88;;;8.88;nan
10832;BME280;5469;48.574;8.768;2022-10-01T00:44:35;94609.41;;;9.08;nan
10832;BME280;5469;48.574;8.768;2022-10-01T00:47:18;94609.34;;;9.29;nan
10832;BME280;5469;48.574;8.768;2022-10-01T00:49:59;94617.84;;;9.10;nan
10832;BME280;5469;48.574;8.768;2022-10-01T00:52:34;94618.94;;;8.94;nan
10832;BME280;5469;48.574;8.768;2022-10-01T00:55:13;94623.09;;;9.26;nan
10832;BME280;5469;48.574;8.768;2022-10-01T00:57:49;94615.19;;;9.05;nan
10832;BME280;5469;48.574;8.768;2022-10-01T01:00:22;94620.75;;;9.09;nan
10832;BME280;5469;48.574;8.768;2022-10-01T01:02:56;94598.81;;;9.18;nan
10832;BME280;5469;48.574;8.768;2022-10-01T01:05:30;94599.34;;;9.05;nan
10832;BME280;5469;48.574;8.768;2022-10-01T01:08:04;94608.88;;;9.01;nan
10832;BME280;5469;48.574;8.768;2022-10-01T01:10:43;94603.53;;;9.32;nan
10832;BME280;5469;48.574;8.768;2022-10-01T01:13:23;94596.97;;;9.09;nan
10832;BME280;5469;48.574;8.768;2022-10-01T01:16:02;94597.72;;;9.25;nan
10832;BME280;5469;48.574;8.768;2022-10-01T01:18:42;94602.47;;;9.28;nan
10832;BME280;5469;48.574;8.768;2022-10-01T01:21:23;94601.75;;;9.02;nan
10832;BME280;5469;48.574;8.768;2022-10-01T01:27:23;94589.31;;;9.02;nan
10832;BME280;5469;48.574;8.768;2022-10-01T01:30:02;94584.56;;;8.99;nan
10832;BME280;5469;48.574;8.768;2022-10-01T01:32:42;94577.16;;;9.01;nan
10832;BME280;5469;48.574;8.768;2022-10-01T01:35:22;94569.25;;;8.96;nan
10832;BME280;5469;48.574;8.768;2022-10-01T01:38:00;94563.94;;;9.06;nan
10832;BME280;5469;48.574;8.768;2022-10-01T01:40:36;94558.69;;;8.91;nan
10832;BME280;5469;48.574;8.768;2022-10-01T01:43:13;94551.28;;;8.98;nan
10832;BME280;5469;48.574;8.768;2022-10-01T01:45:52;94553.56;;;9.20;nan
10832;BME280;5469;48.574;8.768;2022-10-01T01:48:28;94544.00;;;9.34;nan
10832;BME280;5469;48.574;8.768;2022-10-01T01:51:07;94547.66;;;9.44;nan
10832;BME280;5469;48.574;8.768;2022-10-01T01:53:42;94547.16;;;9.36;nan
10832;BME280;5469;48.574;8.768;2022-10-01T01:56:16;94534.75;;;9.37;nan
10832;BME280;5469;48.574;8.768;2022-10-01T01:58:50;94534.25;;;9.30;nan
10832;BME280;5469;48.574;8.768;2022-10-01T02:01:36;94527.94;;;9.10;nan
10832;BME280;5469;48.574;8.768;2022-10-01T02:04:19;94538.50;;;9.21;nan
10832;BME280;5469;48.574;8.768;2022-10-01T02:07:08;94527.28;;;9.44;nan
10832;BME280;5469;48.574;8.768;2022-10-01T02:09:50;94521.47;;;9.47;nan
10832;BME280;5469;48.574;8.768;2022-10-01T02:12:36;94515.63;;;9.50;nan
10832;BME280;5469;48.574;8.768;2022-10-01T02:15:19;94512.69;;;9.52;nan
10832;BME280;5469;48.574;8.768;2022-10-01T02:18:02;94517.28;;;9.36;nan
10832;BME280;5469;48.574;8.768;2022-10-01T02:20:44;94526.53;;;9.38;nan
10832;BME280;5469;48.574;8.768;2022-10-01T02:23:24;94519.44;;;9.29;nan
10832;BME280;5469;48.574;8.768;2022-10-01T02:26:06;94517.59;;;9.24;nan
10832;BME280;5469;48.574;8.768;2022-10-01T02:28:41;94509.28;;;9.46;nan
10832;BME280;5469;48.574;8.768;2022-10-01T02:31:16;94514.59;;;9.41;nan
10832;BME280;5469;48.574;8.768;2022-10-01T02:33:54;94513.78;;;9.46;nan
10832;BME280;5469;48.574;8.768;2022-10-01T02:36:30;94516.53;;;9.75;nan
10832;BME280;5469;48.574;8.768;2022-10-01T02:39:05;94519.88;;;9.46;nan
10832;BME280;5469;48.574;8.768;2022-10-01T02:41:40;94511.97;;;9.41;nan
10832;BME280;5469;48.574;8.768;2022-10-01T02:44:17;94506.13;;;9.44;nan
10832;BME280;5469;48.574;8.768;2022-10-01T02:46:58;94509.28;;;9.46;nan
10832;BME280;5469;48.574;8.768;2022-10-01T02:49:36;94501.81;;;9.63;nan
10832;BME280;5469;48.574;8.768;2022-10-01T02:52:16;94498.66;;;9.56;nan
10832;BME280;5469;48.574;8.768;2022-10-01T02:54:56;94503.78;;;9.43;nan
10832;BME280;5469;48.574;8.768;2022-10-01T02:57:30;94494.03;;;9.33;nan
10832;BME280;5469;48.574;8.768;2022-10-01T03:00:06;94496.59;;;9.48;nan
10832;BME280;5469;48.574;8.768;2022-10-01T03:02:40;94498.53;;;9.77;nan
10832;BME280;5469;48.574;8.768;2022-10-01T03:05:16;94498.75;;;9.36;nan
10832;BME280;5469;48.574;8.768;2022-10-01T03:07:51;94499.09;;;9.24;nan
10832;BME280;5469;48.574;8.768;2022-10-01T03:10:24;94498.84;;;9.21;nan
10832;BME280;5469;48.574;8.768;2022-10-01T03:12:58;94489.84;;;9.22;nan
10832;BME280;5469;48.574;8.768;2022-10-01T03:15:32;94494.81;;;9.33;nan
10832;BME280;5469;48.574;8.768;2022-10-01T03:18:05;94502.03;;;9.17;nan
10832;BME280;5469;48.574;8.768;2022-10-01T03:20:40;94514.91;;;9.39;nan
10832;BME280;5469;48.574;8.768;2022-10-01T03:23:13;94511.97;;;9.41;nan
10832;BME280;5469;48.574;8.768;2022-10-01T03:25:47;94511.50;;;9.34;nan
10832;BME280;5469;48.574;8.768;2022-10-01T03:28:20;94502.00;;;9.23;nan
10832;BME280;5469;48.574;8.768;2022-10-01T03:31:03;94497.28;;;9.14;nan
10832;BME280;5469;48.574;8.768;2022-10-01T03:33:36;94492.53;;;9.11;nan
10832;BME280;5469;48.574;8.768;2022-10-01T03:36:11;94493.38;;;8.96;nan
10832;BME280;5469;48.574;8.768;2022-10-01T03:38:45;94496.81;;;8.92;nan
10832;BME280;5469;48.574;8.768;2022-10-01T03:41:18;94483.03;;;9.00;nan
10832;BME280;5469;48.574;8.768;2022-10-01T03:43:51;94477.75;;;9.05;nan
10832;BME280;5469;48.574;8.768;2022-10-01T03:46:25;94467.72;;;9.02;nan
10832;BME280;5469;48.574;8.768;2022-10-01T03:48:58;94472.00;;;8.93;nan
10832;BME280;5469;48.574;8.768;2022-10-01T03:51:33;94474.09;;;8.96;nan
10832;BME280;5469;48.574;8.768;2022-10-01T03:54:08;94475.09;;;9.05;nan
10832;BME280;5469;48.574;8.768;2022-10-01T03:56:42;94471.94;;;9.08;nan
10832;BME280;5469;48.574;8.768;2022-10-01T03:59:15;94468.22;;;9.09;nan
10832;BME280;5469;48.574;8.768;2022-10-01T04:01:48;94463.44;;;9.16;nan
10832;BME280;5469;48.574;8.768;2022-10-01T04:04:22;94470.88;;;9.04;nan
10832;BME280;5469;48.574;8.768;2022-10-01T04:06:56;94455.56;;;9.06;nan
10832;BME280;5469;48.574;8.768;2022-10-01T04:09:30;94461.56;;;9.17;nan
10832;BME280;5469;48.574;8.768;2022-10-01T04:12:03;94460.78;;;9.22;nan
10832;BME280;5469;48.574;8.768;2022-10-01T04:14:36;94465.22;;;9.31;nan
10832;BME280;5469;48.574;8.768;2022-10-01T04:17:10;94458.16;;;9.16;nan
10832;BME280;5469;48.574;8.768;2022-10-01T04:19:43;94450.72;;;9.24;nan
10832;BME280;5469;48.574;8.768;2022-10-01T04:22:18;94447.47;;;9.37;nan
10832;BME280;5469;48.574;8.768;2022-10-01T04:24:51;94452.88;;;9.16;nan
10832;BME280;5469;48.574;8.768;2022-10-01T04:27:25;94447.56;;;9.16;nan
10832;BME280;5469;48.574;8.768;2022-10-01T04:29:58;94456.56;;;9.10;nan
10832;BME280;5469;48.574;8.768;2022-10-01T04:32:31;94445.94;;;9.26;nan
10832;BME280;5469;48.574;8.768;2022-10-01T04:35:05;94456.22;;;9.32;nan
10832;BME280;5469;48.574;8.768;2022-10-01T04:37:41;94453.84;;;9.31;nan
10832;BME280;5469;48.574;8.768;2022-10-01T04:40:14;94456.50;;;9.26;nan
10832;BME280;5469;48.574;8.768;2022-10-01T04:42:48;94452.81;;;9.27;nan
10832;BME280;5469;48.574;8.768;2022-10-01T04:45:21;94447.00;;;9.25;nan
10832;BME280;5469;48.574;8.768;2022-10-01T04:47:55;94446.41;;;9.33;nan
10832;BME280;5469;48.574;8.768;2022-10-01T04:50:29;94436.88;;;9.37;nan
10832;BME280;5469;48.574;8.768;2022-10-01T04:53:04;94433.09;;;9.48;nan
10832;BME280;5469;48.574;8.768;2022-10-01T04:55:37;94439.66;;;9.56;nan
10832;BME280;5469;48.574;8.768;2022-10-01T04:58:11;94442.81;;;9.63;nan
10832;BME280;5469;48.574;8.768;2022-10-01T05:00:44;94439.88;;;9.65;nan
10832;BME280;5469;48.574;8.768;2022-10-01T05:03:17;94434.25;;;9.76;nan
10832;BME280;5469;48.574;8.768;2022-10-01T05:05:53;94439.53;;;9.76;nan
10832;BME280;5469;48.574;8.768;2022-10-01T05:08:30;94425.44;;;9.86;nan
10832;BME280;5469;48.574;8.768;2022-10-01T05:11:06;94437.00;;;9.95;nan
10832;BME280;5469;48.574;8.768;2022-10-01T05:13:41;94428.00;;;9.96;nan
10832;BME280;5469;48.574;8.768;2022-10-01T05:16:16;94429.50;;;10.07;nan
10832;BME280;5469;48.574;8.768;2022-10-01T05:18:52;94423.25;;;9.93;nan
10832;BME280;5469;48.574;8.768;2022-10-01T05:21:27;94418.47;;;9.95;nan
10832;BME280;5469;48.574;8.768;2022-10-01T05:24:04;94431.16;;;9.98;nan
10832;BME280;5469;48.574;8.768;2022-10-01T05:26:39;94432.34;;;10.11;nan
10832;BME280;5469;48.574;8.768;2022-10-01T05:29:14;94424.66;;;10.15;nan
10832;BME280;5469;48.574;8.768;2022-10-01T05:31:51;94418.91;;;10.07;nan
10832;BME280;5469;48.574;8.768;2022-10-01T05:34:25;94422.06;;;10.10;nan
10832;BME280;5469;48.574;8.768;2022-10-01T05:37:01;94422.19;;;10.23;nan
10832;BME280;5469;48.574;8.768;2022-10-01T05:39:38;94415.06;;;10.19;nan
10832;BME280;5469;48.574;8.768;2022-10-01T05:42:14;94403.38;;;10.25;nan
10832;BME280;5469;48.574;8.768;2022-10-01T05:44:49;94411.22;;;10.40;nan
10832;BME280;5469;48.574;8.768;2022-10-01T05:47:24;94413.34;;;10.38;nan
10832;BME280;5469;48.574;8.768;2022-10-01T05:49:59;94410.81;;;10.23;nan
10832;BME280;5469;48.574;8.768;2022-10-01T05:52:34;94401.22;;;10.27;nan
10832;BME280;5469;48.574;8.768;2022-10-01T05:55:11;94393.72;;;10.39;nan
10832;BME280;5469;48.574;8.768;2022-10-01T05:57:56;94387.31;;;10.45;nan
10832;BME280;5469;48.574;8.768;2022-10-01T06:00:32;94395.84;;;10.37;nan
10832;BME280;5469;48.574;8.768;2022-10-01T06:03:08;94384.72;;;10.40;nan
10832;BME280;5469;48.574;8.768;2022-10-01T06:05:45;94389.56;;;10.33;nan
10832;BME280;5469;48.574;8.768;2022-10-01T06:08:20;94383.06;;;10.44;nan
10832;BME280;5469;48.574;8.768;2022-10-01T06:11:01;94382.06;;;10.40;nan
10832;BME280;5469;48.574;8.768;2022-10-01T06:13:37;94386.84;;;10.38;nan
10832;BME280;5469;48.574;8.768;2022-10-01T06:16:14;94382.66;;;10.32;nan
10832;BME280;5469;48.574;8.768;2022-10-01T06:18:51;94381.19;;;10.45;nan
10832;BME280;5469;48.574;8.768;2022-10-01T06:21:30;94367.81;;;10.36;nan
10832;BME280;5469;48.574;8.768;2022-10-01T06:24:06;94376.25;;;10.38;nan
10832;BME280;5469;48.574;8.768;2022-10-01T06:26:42;94358.81;;;10.32;nan
10832;BME280;5469;48.574;8.768;2022-10-01T06:29:17;94369.31;;;10.42;nan
10832;BME280;5469;48.574;8.768;2022-10-01T06:31:52;94364.53;;;10.44;nan
10832;BME280;5469;48.574;8.768;2022-10-01T06:34:27;94364.97;;;10.52;nan
10832;BME280;5469;48.574;8.768;2022-10-01T06:37:02;94361.59;;;10.70;nan
10832;BME280;5469;48.574;8.768;2022-10-01T06:39:37;94365.97;;;10.56;nan
10832;BME280;5469;48.574;8.768;2022-10-01T06:42:13;94369.72;;;10.55;nan
10832;BME280;5469;48.574;8.768;2022-10-01T06:44:48;94362.44;;;10.41;nan
10832;BME280;5469;48.574;8.768;2022-10-01T06:47:23;94384.47;;;10.61;nan
10832;BME280;5469;48.574;8.768;2022-10-01T06:49:58;94372.63;;;10.53;nan
10832;BME280;5469;48.574;8.768;2022-10-01T06:52:33;94370.34;;;10.46;nan
10832;BME280;5469;48.574;8.768;2022-10-01T06:55:26;94372.63;;;10.53;nan
10832;BME280;5469;48.574;8.768;2022-10-01T06:58:05;94382.44;;;10.53;nan
10832;BME280;5469;48.574;8.768;2022-10-01T07:00:41;94383.81;;;10.21;nan
10832;BME280;5469;48.574;8.768;2022-10-01T07:03:18;94373.63;;;10.38;nan
10832;BME280;5469;48.574;8.768;2022-10-01T07:05:59;94369.31;;;10.42;nan
10832;BME280;5469;48.574;8.768;2022-10-01T07:08:34;94368.16;;;10.54;nan
10832;BME280;5469;48.574;8.768;2022-10-01T07:11:09;94382.13;;;10.35;nan
10832;BME280;5469;48.574;8.768;2022-10-01T07:13:46;94407.47;;;10.41;nan
10832;BME280;5469;48.574;8.768;2022-10-01T07:16:21;94401.56;;;10.20;nan
10832;BME280;5469;48.574;8.768;2022-10-01T07:18:56;94377.16;;;10.28;nan
10832;BME280;5469;48.574;8.768;2022-10-01T07:21:31;94360.47;;;10.28;nan
10832;BME280;5469;48.574;8.768;2022-10-01T07:24:06;94361.81;;;10.49;nan
10832;BME280;5469;48.574;8.768;2022-10-01T07:26:41;94409.31;;;10.12;nan
10832;BME280;5469;48.574;8.768;2022-10-01T07:29:17;94374.63;;;10.13;nan
10832;BME280;5469;48.574;8.768;2022-10-01T07:31:58;94364.13;;;10.32;nan
10832;BME280;5469;48.574;8.768;2022-10-01T07:34:34;94373.66;;;10.33;nan
10832;BME280;5469;48.574;8.768;2022-10-01T07:37:10;94381.94;;;10.21;nan
10832;BME280;5469;48.574;8.768;2022-10-01T07:39:45;94389.13;;;10.21;nan
10832;BME280;5469;48.574;8.768;2022-10-01T07:42:21;94400.88;;;10.10;nan
10832;BME280;5469;48.574;8.768;2022-10-01T07:44:57;94380.13;;;10.17;nan
10832;BME280;5469;48.574;8.768;2022-10-01T07:47:33;94379.47;;;10.35;nan
10832;BME280;5469;48.574;8.768;2022-10-01T07:50:08;94368.47;;;10.47;nan
10832;BME280;5469;48.574;8.768;2022-10-01T07:52:43;94375.69;;;10.41;nan
10832;BME280;5469;48.574;8.768;2022-10-01T07:55:18;94375.91;;;10.45;nan
10832;BME280;5469;48.574;8.768;2022-10-01T07:57:55;94382.75;;;10.22;nan
10832;BME280;5469;48.574;8.768;2022-10-01T08:00:33;94375.41;;;10.14;nan
10832;BME280;5469;48.574;8.768;2022-10-01T08:03:09;94382.56;;;10.42;nan
10832;BME280;5469;48.574;8.768;2022-10-01T08:05:45;94374.66;;;10.37;nan
10832;BME280;5469;48.574;8.768;2022-10-01T08:08:20;94381.09;;;10.31;nan
10832;BME280;5469;48.574;8.768;2022-10-01T08:10:55;94377.97;;;10.24;nan
10832;BME280;5469;48.574;8.768;2022-10-01T08:13:30;94369.41;;;10.32;nan
10832;BME280;5469;48.574;8.768;2022-10-01T08:16:09;94371.53;;;10.35;nan
10832;BME280;5469;48.574;8.768;2022-10-01T08:18:44;94384.25;;;10.33;nan
10832;BME280;5469;48.574;8.768;2022-10-01T08:21:19;94389.81;;;10.32;nan
10832;BME280;5469;48.574;8.768;2022-10-01T08:23:54;94370.34;;;10.46;nan
10832;BME280;5469;48.574;8.768;2022-10-01T08:26:29;94379.44;;;10.40;nan
10832;BME280;5469;48.574;8.768;2022-10-01T08:29:05;94395.19;;;10.50;nan
10832;BME280;5469;48.574;8.768;2022-10-01T08:31:41;94393.41;;;10.46;nan
10832;BME280;5469;48.574;8.768;2022-10-01T08:34:16;94397.34;;;10.48;nan
10832;BME280;5469;48.574;8.768;2022-10-01T08:36:52;94399.47;;;10.46;nan
10832;BME280;5469;48.574;8.768;2022-10-01T08:39:27;94395.19;;;10.50;nan
10832;BME280;5469;48.574;8.768;2022-10-01T08:42:06;94403.75;;;10.42;nan
10832;BME280;5469;48.574;8.768;2022-10-01T08:44:46;94394.84;;;10.33;nan
10832;BME280;5469;48.574;8.768;2022-10-01T08:47:32;94395.53;;;10.68;nan
10832;BME280;5469;48.574;8.768;2022-10-01T08:50:17;94379.94;;;10.85;nan
10832;BME280;5469;48.574;8.768;2022-10-01T08:52:58;94386.28;;;10.41;nan
10832;BME280;5469;48.574;8.768;2022-10-01T08:55:36;94385.16;;;10.47;nan
10832;BME280;5469;48.574;8.768;2022-10-01T08:58:14;94399.00;;;10.63;nan
10832;BME280;5469;48.574;8.768;2022-10-01T09:00:52;94401.59;;;10.68;nan
10832;BME280;5469;48.574;8.768;2022-10-01T09:03:30;94398.13;;;10.73;nan
10832;BME280;5469;48.574;8.768;2022-10-01T09:06:16;94396.31;;;10.92;nan
10832;BME280;5469;48.574;8.768;2022-10-01T09:09:16;94385.38;;;10.75;nan
10832;BME280;5469;48.574;8.768;2022-10-01T09:12:04;94402.84;;;11.00;nan
10832;BME280;5469;48.574;8.768;2022-10-01T09:14:58;94405.94;;;11.26;nan
10832;BME280;5469;48.574;8.768;2022-10-01T09:17:43;94400.63;;;11.26;nan
10832;BME280;5469;48.574;8.768;2022-10-01T09:20:25;94405.28;;;11.15;nan
10832;BME280;5469;48.574;8.768;2022-10-01T09:23:12;94418.31;;;11.12;nan
10832;BME280;5469;48.574;8.768;2022-10-01T09:25:54;94411.00;;;11.23;nan
10832;BME280;5469;48.574;8.768;2022-10-01T09:28:34;94420.88;;;10.98;nan
10832;BME280;5469;48.574;8.768;2022-10-01T09:31:15;94418.25;;;11.17;nan
10832;BME280;5469;48.574;8.768;2022-10-01T09:33:57;94413.53;;;11.14;nan
10832;BME280;5469;48.574;8.768;2022-10-01T09:36:40;94418.63;;;11.10;nan
10832;BME280;5469;48.574;8.768;2022-10-01T09:39:23;94415.53;;;11.22;nan
10832;BME280;5469;48.574;8.768;2022-10-01T09:42:00;94414.97;;;11.25;nan
10832;BME280;5469;48.574;8.768;2022-10-01T09:44:37;94407.19;;;11.10;nan
10832;BME280;5469;48.574;8.768;2022-10-01T09:47:17;94418.84;;;11.14;nan
10832;BME280;5469;48.574;8.768;2022-10-01T09:49:55;94417.41;;;11.03;nan
10832;BME280;5469;48.574;8.768;2022-10-01T09:52:36;94398.75;;;11.08;nan
10832;BME280;5469;48.574;8.768;2022-10-01T09:55:21;94418.25;;;11.17;nan
10832;BME280;5469;48.574;8.768;2022-10-01T09:58:02;94415.09;;;11.15;nan
10832;BME280;5469;48.574;8.768;2022-10-01T10:00:39;94423.56;;;11.17;nan
10832;BME280;5469;48.574;8.768;2022-10-01T10:03:23;94409.78;;;11.15;nan
10832;BME280;5469;48.574;8.768;2022-10-01T10:06:00;94408.88;;;11.25;nan
10832;BME280;5469;48.574;8.768;2022-10-01T10:08:38;94416.75;;;11.30;nan
10832;BME280;5469;48.574;8.768;2022-10-01T10:11:21;94453.94;;;11.06;nan
10832;BME280;5469;48.574;8.768;2022-10-01T10:13:59;94433.72;;;11.10;nan
10832;BME280;5469;48.574;8.768;2022-10-01T10:16:40;94448.69;;;11.01;nan
10832;BME280;5469;48.574;8.768;2022-10-01T10:19:23;94444.78;;;11.17;nan
10832;BME280;5469;48.574;8.768;2022-10-01T10:22:12;94455.38;;;11.17;nan
10832;BME280;5469;48.574;8.768;2022-10-01T10:24:57;94468.78;;;11.07;nan
10832;BME280;5469;48.574;8.768;2022-10-01T10:27:50;94461.06;;;11.29;nan
10832;BME280;5469;48.574;8.768;2022-10-01T10:30:28;94470.59;;;11.30;nan
10832;BME280;5469;48.574;8.768;2022-10-01T10:33:06;94462.16;;;11.47;nan
10832;BME280;5469;48.574;8.768;2022-10-01T10:35:42;94461.06;;;11.29;nan
10832;BME280;5469;48.574;8.768;2022-10-01T10:38:17;94455.34;;;11.41;nan
10832;BME280;5469;48.574;8.768;2022-10-01T10:40:54;94459.59;;;11.61;nan
10832;BME280;5469;48.574;8.768;2022-10-01T10:43:33;94468.25;;;11.67;nan
10832;BME280;5469;48.574;8.768;2022-10-01T10:46:09;94468.78;;;11.50;nan
10832;BME280;5469;48.574;8.768;2022-10-01T10:48:45;94458.16;;;11.50;nan
10832;BME280;5469;48.574;8.768;2022-10-01T10:51:24;94452.28;;;11.53;nan
10832;BME280;5469;48.574;8.768;2022-10-01T10:54:00;94462.69;;;11.49;nan
10832;BME280;5469;48.574;8.768;2022-10-01T10:56:38;94467.31;;;11.38;nan
10832;BME280;5469;48.574;8.768;2022-10-01T10:59:14;94469.34;;;11.47;nan
10832;BME280;5469;48.574;8.768;2022-10-01T11:01:52;94461.66;;;11.45;nan
10832;BME280;5469;48.574;8.768;2022-10-01T11:04:30;94462.56;;;11.35;nan
10832;BME280;5469;48.574;8.768;2022-10-01T11:07:12;94461.94;;;11.25;nan
10832;BME280;5469;48.574;8.768;2022-10-01T11:10:15;94456.28;;;11.31;nan
10832;BME280;5469;48.574;8.768;2022-10-01T11:13:22;94448.53;;;11.54;nan
10832;BME280;5469;48.574;8.768;2022-10-01T11:16:11;94459.72;;;11.51;nan
10832;BME280;5469;48.574;8.768;2022-10-01T11:19:06;94458.72;;;11.47;nan
10832;BME280;5469;48.574;8.768;2022-10-01T11:22:04;94449.03;;;11.56;nan
10832;BME280;5469;48.574;8.768;2022-10-01T11:25:12;94456.50;;;11.73;nan
10832;BME280;5469;48.574;8.768;2022-10-01T11:27:55;94445.66;;;11.69;nan
10832;BME280;5469;48.574;8.768;2022-10-01T11:30:40;94451.56;;;11.66;nan
10832;BME280;5469;48.574;8.768;2022-10-01T11:33:25;94451.41;;;11.76;nan
10832;BME280;5469;48.574;8.768;2022-10-01T11:36:11;94459.06;;;11.59;nan
10832;BME280;5469;48.574;8.768;2022-10-01T11:38:55;94473.66;;;11.80;nan
10832;BME280;5469;48.574;8.768;2022-10-01T11:41:37;94465.31;;;11.68;nan
10832;BME280;5469;48.574;8.768;2022-10-01T11:44:18;94465.25;;;11.73;nan
10832;BME280;5469;48.574;8.768;2022-10-01T11:47:00;94473.06;;;11.84;nan
10832;BME280;5469;48.574;8.768;2022-10-01T11:49:49;94464.75;;;11.71;nan
10832;BME280;5469;48.574;8.768;2022-10-01T11:52:39;94472.38;;;11.97;nan
10832;BME280;5469;48.574;8.768;2022-10-01T11:55:22;94470.41;;;11.84;nan
10832;BME280;5469;48.574;8.768;2022-10-01T11:58:25;94473.72;;;11.56;nan
10832;BME280;5469;48.574;8.768;2022-10-01T12:01:27;94480.53;;;11.81;nan
10832;BME280;5469;48.574;8.768;2022-10-01T12:04:26;94487.41;;;11.64;nan
10832;BME280;5469;48.574;8.768;2022-10-01T12:07:12;94478.47;;;11.78;nan
10832;BME280;5469;48.574;8.768;2022-10-01T12:09:55;94479.75;;;11.81;nan
10832;BME280;5469;48.574;8.768;2022-10-01T12:13:06;94469.63;;;12.02;nan
10832;BME280;5469;48.574;8.768;2022-10-01T12:16:06;94463.78;;;12.19;nan
10832;BME280;5469;48.574;8.768;2022-10-01T12:18:49;94471.63;;;12.10;nan
10832;BME280;5469;48.574;8.768;2022-10-01T12:21:31;94477.03;;;12.38;nan
10832;BME280;5469;48.574;8.768;2022-10-01T12:24:12;94464.22;;;12.40;nan
10832;BME280;5469;48.574;8.768;2022-10-01T12:26:56;94462.66;;;12.39;nan
10832;BME280;5469;48.574;8.768;2022-10-01T12:29:40;94464.03;;;12.50;nan
10832;BME280;5469;48.574;8.768;2022-10-01T12:32:24;94471.47;;;12.67;nan
10832;BME280;5469;48.574;8.768;2022-10-01T12:35:12;94470.78;;;12.89;nan
10832;BME280;5469;48.574;8.768;2022-10-01T12:38:05;94463.72;;;12.98;nan
10832;BME280;5469;48.574;8.768;2022-10-01T12:40:48;94468.66;;;13.05;nan
10832;BME280;5469;48.574;8.768;2022-10-01T12:43:45;94466.06;;;13.14;nan
10832;BME280;5469;48.574;8.768;2022-10-01T12:46:30;94474.34;;;13.12;nan
10832;BME280;5469;48.574;8.768;2022-10-01T12:49:14;94469.41;;;13.33;nan
10832;BME280;5469;48.574;8.768;2022-10-01T12:52:00;94464.81;;;13.39;nan
10832;BME280;5469;48.574;8.768;2022-10-01T12:57:59;94465.78;;;14.69;nan
10832;BME280;5469;48.574;8.768;2022-10-01T13:00:40;94472.50;;;14.98;nan
10832;BME280;5469;48.574;8.768;2022-10-01T13:03:28;94463.81;;;15.41;nan
10832;BME280;5469;48.574;8.768;2022-10-01T13:06:18;94481.63;;;15.63;nan
10832;BME280;5469;48.574;8.768;2022-10-01T13:09:17;94472.97;;;16.62;nan
10832;BME280;5469;48.574;8.768;2022-10-01T13:12:05;94472.06;;;16.23;nan
10832;BME280;5469;48.574;8.768;2022-10-01T13:14:48;94485.44;;;15.13;nan
10832;BME280;5469;48.574;8.768;2022-10-01T13:17:33;94478.22;;;15.14;nan
10832;BME280;5469;48.574;8.768;2022-10-01T13:20:16;94490.41;;;15.06;nan
10832;BME280;5469;48.574;8.768;2022-10-01T13:22:59;94492.41;;;15.32;nan
10832;BME280;5469;48.574;8.768;2022-10-01T13:25:46;94489.13;;;14.95;nan
10832;BME280;5469;48.574;8.768;2022-10-01T13:28:30;94512.56;;;14.75;nan
10832;BME280;5469;48.574;8.768;2022-10-01T13:31:14;94491.22;;;14.75;nan
10832;BME280;5469;48.574;8.768;2022-10-01T13:33:56;94493.41;;;14.73;nan
10832;BME280;5469;48.574;8.768;2022-10-01T13:36:33;94497.44;;;14.62;nan
10832;BME280;5469;48.574;8.768;2022-10-01T13:39:21;94484.31;;;14.74;nan
10832;BME280;5469;48.574;8.768;2022-10-01T13:41:58;94480.03;;;14.64;nan
10832;BME280;5469;48.574;8.768;2022-10-01T13:44:35;94484.31;;;14.74;nan
10832;BME280;5469;48.574;8.768;2022-10-01T13:47:12;94484.31;;;14.74;nan
10832;BME280;5469;48.574;8.768;2022-10-01T13:49:58;94494.75;;;14.39;nan
10832;BME280;5469;48.574;8.768;2022-10-01T13:52:36;94498.75;;;14.51;nan
10832;BME280;5469;48.574;8.768;2022-10-01T13:55:23;94514.16;;;14.54;nan
10832;BME280;5469;48.574;8.768;2022-10-01T13:58:04;94508.31;;;14.52;nan
10832;BME280;5469;48.574;8.768;2022-10-01T14:00:49;94510.53;;;14.27;nan
10832;BME280;5469;48.574;8.768;2022-10-01T14:03:36;94515.00;;;14.40;nan
10832;BME280;5469;48.574;8.768;2022-10-01T14:06:20;94499.63;;;14.37;nan
10832;BME280;5469;48.574;8.768;2022-10-01T14:09:02;94510.53;;;14.27;nan
10832;BME280;5469;48.574;8.768;2022-10-01T14:11:40;94516.31;;;14.29;nan
10832;BME280;5469;48.574;8.768;2022-10-01T14:14:36;94520.88;;;14.29;nan
10832;BME280;5469;48.574;8.768;2022-10-01T14:17:30;94522.00;;;13.91;nan
10832;BME280;5469;48.574;8.768;2022-10-01T14:20:17;94521.19;;;14.27;nan
10832;BME280;5469;48.574;8.768;2022-10-01T14:23:01;94533.03;;;13.98;nan
10832;BME280;5469;48.574;8.768;2022-10-01T14:25:43;94532.69;;;14.14;nan
10832;BME280;5469;48.574;8.768;2022-10-01T14:28:32;94527.59;;;13.90;nan
10832;BME280;5469;48.574;8.768;2022-10-01T14:31:17;94521.16;;;14.05;nan
10832;BME280;5469;48.574;8.768;2022-10-01T14:34:24;94511.94;;;13.88;nan
10832;BME280;5469;48.574;8.768;2022-10-01T14:37:06;94526.94;;;13.84;nan
10832;BME280;5469;48.574;8.768;2022-10-01T14:39:41;94523.31;;;14.03;nan
10832;BME280;5469;48.574;8.768;2022-10-01T14:42:18;94524.94;;;13.90;nan
10832;BME280;5469;48.574;8.768;2022-10-01T14:44:53;94527.91;;;13.88;nan
10832;BME280;5469;48.574;8.768;2022-10-01T14:47:28;94543.97;;;13.97;nan
10832;BME280;5469;48.574;8.768;2022-10-01T14:50:17;94521.31;;;13.86;nan